Terminal Aerodrome Forecast
Issued by NWS

Home | Current Version | Previous Version | Text Only | Print | Product List | Glossary On
Versions: 1 2 3 4 5 6 7 8 9 10 11 12 13 14 15 16 17 18 19 20 21 22 23 24
309
FTUS44 KTSA 301321 AAA
TAFMLC
TAF AMD
KMLC 301321Z 3013/0112 32006KT 3SM BR OVC005
      TEMPO 3013/3014 1SM BR BKN003
     FM301600 29010KT P6SM BKN009
     FM301800 29009KT P6SM BKN015
     FM302000 32007KT P6SM SCT025 SCT250
     FM010000 33003KT P6SM SKC=

USA.gov is the U.S. government's official web portal to all federal, state and local government web resources and services.